Meiser, Pennsylvania
Current Conditions -  °F | °C
As of 8:53 PM on Wednesday 22 Oct 2014 (Local Time) from KSEG Reporting Station
Light Rain Light Rain  
Wind Chill: 51°   Ceiling: 2300
Heat Index: 51°   Visibility: 10mi
Dew Point: 43°   Wind: 16mph
Humidity: 74%   Direction: 340°NNW
Pressure: 30.01"   Gusts: NA
Location:  40.7851°N, 77.0335°W
Report Text: KSEG 230053Z AUTO 34014KT 10SM -RA OVC023 11/06 A3001 RMK AO2 RAB34 SLP161 P0000 T01060061
Loading
Personal Weather Stations






























Interactive Weather Map
Tropical Storm Tracking
New forecast layout! Learn more

10-Day Weather Forecast

Advertisements
Track Severe Weather on mobile